Latest Coastal Weather Observations for Darwin Harbour

IDD60701

Issued at 4:41 pm CST Wednesday 29 June 2016 (issued every 10 minutes, with the page automatically refreshed every 10 minutes)

About coastal observations | Map of coastal stations | Coastal observations for NT | Marine services | Other Formats
Station Details ID: 014072 Name: DARWIN NTC AWS Lat: -12.47 Lon: 130.85 Height: 0.0 m
Data from the previous 72 hours. | See also: Recent months for locations in Northern Territory
Date/Time
CST
Temp
°C
Wind Pressure Rain since
9am
mm
Weather Cloud Vis
km
Sea
Height
m
Swell
Dir  Spd
kts
Gust
kts
hPa Trend Height
m
Period
s
Dir
29/04:30pm 30.8 ESE 6 11 1011.0 - - - - - - - - -
29/04:00pm 31.5 ENE 9 15 1010.8 - - - - - - - - -
29/03:30pm 31.0 E 8 13 1011.1 - - - - - - - - -
29/03:00pm 30.3 ESE 9 12 1011.3 - - - - - - - - -
29/02:30pm 30.4 E 11 15 1011.5 - - - - - - - - -
29/02:00pm 30.3 E 13 17 1012.0 - - - - - - - - -
29/01:30pm 29.8 E 11 16 1012.6 - - - - - - - - -
29/01:00pm 29.0 E 13 19 1013.4 - - - - - - - - -
29/12:30pm 28.6 ESE 12 15 1014.0 - - - - - - - - -
29/12:00pm 27.9 ESE 11 13 1014.8 - - - - - - - - -
29/11:30am 27.1 ESE 12 15 1015.3 - - - - - - - - -
29/11:00am 26.2 ESE 14 17 1015.5 - - - - - - - - -
29/10:30am 25.4 ESE 18 22 1015.7 - - - - - - - - -
29/10:00am 25.2 ESE 18 22 1016.0 - - - - - - - - -
29/09:30am 24.5 ESE 16 20 1016.2 - - - - - - - - -
29/09:00am 23.9 ESE 14 18 1016.2 - - - - - - - - -
29/08:30am 23.9 E 16 20 1016.1 - - - - - - - - -
29/08:00am 24.2 E 16 20 1015.8 - - - - - - - - -
29/07:30am 24.1 E 13 17 1015.6 - - - - - - - - -
29/07:00am 23.9 E 13 16 1015.2 - - - - - - - - -
29/06:30am 24.3 E 14 17 1014.9 - - - - - - - - -
29/06:00am 24.3 E 13 16 1014.7 - - - - - - - - -
29/05:30am 24.5 E 11 14 1014.4 - - - - - - - - -
29/05:00am 24.9 E 13 17 1014.1 - - - - - - - - -
29/04:30am 25.2 E 14 16 1013.9 - - - - - - - - -
29/04:00am 25.5 E 15 19 1014.0 - - - - - - - - -
29/03:30am 25.8 E 16 19 1013.9 - - - - - - - - -
29/03:00am 25.9 E 16 20 1014.0 - - - - - - - - -
29/02:30am 26.6 E 14 18 1014.1 - - - - - - - - -
29/02:00am 27.2 ESE 10 12 1014.2 - - - - - - - - -
29/01:30am 27.6 SE 8 10 1014.3 - - - - - - - - -
29/01:00am 28.0 SSE 5 8 1014.3 - - - - - - - - -
29/12:30am 27.2 SSW 6 8 1014.4 - - - - - - - - -
29/12:00am 26.9 SW 6 7 1014.5 - - - - - - - - -
 
Date/Time
CST
Temp
°C
Wind Pressure Rain since
9am
mm
Weather Cloud Vis
km
Sea
Height
m
Swell
Dir  Spd
kts
Gust
kts
hPa Trend Height
m
Period
s
Dir
28/11:30pm 26.9 SW 7 9 1014.4 - - - - - - - - -
28/11:00pm 27.0 SSW 6 8 1014.5 - - - - - - - - -
28/10:30pm 27.2 SSW 9 11 1014.5 - - - - - - - - -
28/10:00pm 28.2 SE 3 6 1014.1 - - - - - - - - -
28/09:30pm 27.7 SSE 2 3 1013.8 - - - - - - - - -
28/09:00pm 27.6 ENE 2 4 1013.5 - - - - - - - - -
28/08:30pm 28.1 ENE 4 7 1013.2 - - - - - - - - -
28/08:00pm 28.4 NE 6 9 1012.8 - - - - - - - - -
28/07:30pm 28.8 NE 5 9 1012.4 - - - - - - - - -
28/07:00pm 29.4 NE 5 9 1012.1 - - - - - - - - -
28/06:30pm 31.5 ENE 8 12 1011.8 - - - - - - - - -
28/06:00pm 31.6 ENE 6 11 1011.5 - - - - - - - - -
28/05:30pm 31.6 E 5 9 1011.2 - - - - - - - - -
28/05:00pm 31.8 ENE 5 11 1011.0 - - - - - - - - -
28/04:30pm 31.4 ENE 8 14 1010.8 - - - - - - - - -
28/04:00pm 30.6 ESE 7 13 1010.7 - - - - - - - - -
28/03:30pm 30.9 E 6 12 1010.8 - - - - - - - - -
28/03:00pm 31.2 ENE 6 15 1011.0 - - - - - - - - -
28/02:30pm 30.6 ESE 7 12 1011.3 - - - - - - - - -
28/02:00pm 30.7 ENE 11 19 1011.5 - - - - - - - - -
28/01:30pm 30.9 E 8 16 1011.9 - - - - - - - - -
28/01:00pm 29.9 ENE 10 17 1012.3 - - - - - - - - -
28/12:30pm 29.5 ENE 7 19 1012.8 - - - - - - - - -
28/12:00pm 29.0 ENE 12 22 1013.2 - - - - - - - - -
28/11:30am 28.6 ENE 6 13 1013.7 - - - - - - - - -
28/11:00am 27.9 ENE 9 21 1014.0 - - - - - - - - -
28/10:30am 27.5 ENE 7 18 1014.3 - - - - - - - - -
28/10:00am 27.3 ESE 9 18 1014.4 - - - - - - - - -
28/09:30am 26.2 E 6 11 1014.3 - - - - - - - - -
28/09:00am 26.0 ENE 3 8 1014.0 - - - - - - - - -
28/08:30am 25.4 ENE 4 11 1013.7 - - - - - - - - -
28/08:00am 25.1 ESE 7 12 1013.3 - - - - - - - - -
28/07:30am 25.0 E 11 14 1013.1 - - - - - - - - -
28/07:00am 24.9 E 9 12 1012.8 - - - - - - - - -
28/06:30am 25.0 E 9 11 1012.5 - - - - - - - - -
28/06:00am 25.1 E 9 10 1012.1 - - - - - - - - -
28/05:30am 25.1 E 10 12 1011.9 - - - - - - - - -
28/05:00am 25.4 E 10 12 1011.8 - - - - - - - - -
28/04:30am 25.6 E 10 13 1011.7 - - - - - - - - -
28/04:00am 25.9 ESE 9 10 1011.7 - - - - - - - - -
28/03:30am 25.9 ESE 7 8 1011.9 - - - - - - - - -
28/03:00am 25.9 ESE 8 9 1012.2 - - - - - - - - -
28/02:30am 26.5 SE 7 9 1012.4 - - - - - - - - -
28/02:00am 26.7 ESE 6 7 1012.7 - - - - - - - - -
28/01:30am 27.0 E 4 5 1012.9 - - - - - - - - -
28/01:00am 27.0 NE 2 4 1013.1 - - - - - - - - -
28/12:30am 27.1 ENE 1 3 1013.2 - - - - - - - - -
28/12:00am 27.1 ESE 3 5 1013.3 - - - - - - - - -
 
Date/Time
CST
Temp
°C
Wind Pressure Rain since
9am
mm
Weather Cloud Vis
km
Sea
Height
m
Swell
Dir  Spd
kts
Gust
kts
hPa Trend Height
m
Period
s
Dir
27/11:30pm 27.3 ENE 3 5 1013.4 - - - - - - - - -
27/11:00pm 27.4 E 4 7 1013.3 - - - - - - - - -
27/10:30pm 27.6 ENE 4 8 1013.2 - - - - - - - - -
27/10:00pm 27.8 ENE 4 7 1012.9 - - - - - - - - -
27/09:30pm 27.9 E 4 6 1012.7 - - - - - - - - -
27/09:00pm 27.8 ESE 2 3 1012.4 - - - - - - - - -
27/08:30pm 27.9 NE 1 3 1012.0 - - - - - - - - -
27/08:00pm 27.8 ENE 2 4 1011.5 - - - - - - - - -
27/07:30pm 28.0 NE 4 7 1011.1 - - - - - - - - -
27/07:00pm 28.3 NE 6 11 1010.6 - - - - - - - - -
27/06:30pm 28.7 NE 6 13 1010.2 - - - - - - - - -
27/06:00pm 29.3 NE 7 12 1009.9 - - - - - - - - -
27/05:30pm 29.8 NNE 6 12 1009.5 - - - - - - - - -
27/05:00pm 30.6 N 3 7 1009.4 - - - - - - - - -
27/04:30pm 30.4 NNW 5 11 1009.1 - - - - - - - - -
27/04:00pm 30.6 NNW 4 9 1009.0 - - - - - - - - -
27/03:30pm 30.6 NNW 4 9 1009.2 - - - - - - - - -
27/03:00pm 30.1 WNW 4 9 1009.3 - - - - - - - - -
27/02:30pm 29.6 W 5 8 1009.7 - - - - - - - - -
27/02:00pm 29.9 W 3 5 1010.1 - - - - - - - - -
27/01:30pm 31.0 WNW 1 4 1010.5 - - - - - - - - -
27/01:00pm 30.7 NE 1 5 1011.1 - - - - - - - - -
27/12:30pm 30.0 SSW 1 6 1011.7 - - - - - - - - -
27/12:00pm 29.0 ENE 6 8 1012.1 - - - - - - - - -
27/11:30am 28.6 ENE 7 9 1012.5 - - - - - - - - -
27/11:00am 28.3 E 6 8 1012.8 - - - - - - - - -
27/10:30am 28.6 ENE 5 8 1013.0 - - - - - - - - -
27/10:00am 27.4 ENE 3 5 1013.2 - - - - - - - - -
27/09:30am 26.7 ENE 3 5 1013.3 - - - - - - - - -
27/09:00am 26.6 ENE 3 4 1013.1 - - - - - - - - -
27/08:30am 26.5 ENE 4 5 1012.9 - - - - - - - - -
27/08:00am 25.3 ENE 5 7 1012.5 - - - - - - - - -
27/07:30am 24.4 ENE 2 6 1011.9 - - - - - - - - -
27/07:00am 24.9 ENE 2 5 1011.7 - - - - - - - - -
27/06:30am 25.2 ESE 3 4 1011.5 - - - - - - - - -
27/06:00am 25.1 SE 3 5 1011.4 - - - - - - - - -
27/05:30am 25.2 ESE 3 5 1011.3 - - - - - - - - -
27/05:00am 25.2 ESE 3 5 1011.1 - - - - - - - - -
27/04:30am 25.1 E 3 5 1010.9 - - - - - - - - -
27/04:00am 25.1 ENE 1 3 1010.9 - - - - - - - - -
27/03:30am 25.0 ENE 1 2 1010.8 - - - - - - - - -
27/03:00am 25.8 S 1 2 1010.8 - - - - - - - - -
27/02:30am 26.0 S 2 3 1011.1 - - - - - - - - -
27/02:00am 26.1 SSW 3 4 1011.3 - - - - - - - - -
27/01:30am 26.5 SSW 4 4 1011.4 - - - - - - - - -
27/01:00am 26.6 SSW 4 4 1011.5 - - - - - - - - -
27/12:30am 26.8 SSW 2 3 1011.7 - - - - - - - - -
27/12:00am 26.8 SSW 2 3 1011.7 - - - - - - - - -
 
Date/Time
CST
Temp
°C
Wind Pressure Rain since
9am
mm
Weather Cloud Vis
km
Sea
Height
m
Swell
Dir  Spd
kts
Gust
kts
hPa Trend Height
m
Period
s
Dir
26/11:30pm 27.4 WSW 1 1 1011.8 - - - - - - - - -
26/11:00pm 27.5 WSW 2 3 1011.8 - - - - - - - - -
26/10:30pm 27.3 WSW 1 1 1011.9 - - - - - - - - -
26/10:00pm 27.6 ENE 1 2 1011.8 - - - - - - - - -
26/09:30pm 27.5 NE 2 3 1011.7 - - - - - - - - -
26/09:00pm 27.8 NE 4 7 1011.5 - - - - - - - - -
26/08:30pm 27.9 NNE 3 7 1011.3 - - - - - - - - -
26/08:00pm 27.9 NNE 4 8 1010.9 - - - - - - - - -
26/07:30pm 28.2 NNE 5 9 1010.6 - - - - - - - - -
26/07:00pm 28.7 N 5 8 1010.2 - - - - - - - - -
26/06:30pm 28.6 NNE 6 11 1009.9 - - - - - - - - -
26/06:00pm 28.9 NNE 5 10 1009.6 - - - - - - - - -
26/05:30pm 29.1 NNE 6 10 1009.3 - - - - - - - - -
26/05:00pm 28.8 NNE 8 14 1009.1 - - - - - - - - -

Other Formats:

Comma delimited format used in spreadsheet applications
http://www.bom.gov.au/fwo/IDD60701/IDD60701.95122.axf

JavaScript Object Notation format (JSON) in row-major order
http://www.bom.gov.au/fwo/IDD60701/IDD60701.95122.json